Manchester, Connecticut
Current Conditions -  °F | °C
As of 8:53 AM on Tuesday 27 Jan 2015 (Local Time) from KHFD Reporting Station
Light Snow Light Snow  
Wind Chill:   Ceiling: 600
Heat Index: 18°   Visibility: 0.25mi
Dew Point: 14°   Wind: 18mph
Humidity: 84%   Direction: 340°NNW
Pressure: 29.62"   Gusts: 28mph
Location:  41.78°N, 72.52°W
Report Text: KHFD 271353Z 34016G24KT 1/4SM -SN FZFG VV006 M08/M10 A2962 RMK AO2 PK WND 34030/1322 SLP030 P0003 T10781100 $
Loading
Personal Weather Stations






























Interactive Weather Map New forecast layout! Learn more

10-Day Weather Forecast

Advertisements
Track Severe Weather on mobile